createdAt,value
2022-08-18T00:01:05.397Z,23.12
2022-08-18T00:03:56.000Z,23.45
2022-08-18T00:06:18.926Z,23.40
2022-08-18T00:08:45.432Z,23.26
2022-08-18T00:11:12.091Z,23.11
2022-08-18T00:13:38.607Z,23.03
2022-08-18T00:16:05.205Z,22.73
2022-08-18T00:18:31.711Z,22.93
2022-08-18T00:20:58.183Z,23.08
2022-08-18T00:23:24.670Z,22.95
2022-08-18T00:25:51.223Z,22.98
2022-08-18T00:28:17.759Z,23.05
2022-08-18T00:30:44.282Z,22.93
2022-08-18T00:33:11.945Z,22.79
2022-08-18T00:35:38.619Z,22.91
2022-08-18T00:38:06.597Z,22.80
2022-08-18T00:40:38.120Z,22.67
2022-08-18T00:43:06.101Z,22.84
2022-08-18T00:45:36.160Z,22.62
2022-08-18T00:48:03.510Z,23.03
2022-08-18T00:50:34.881Z,23.96
2022-08-18T00:53:18.469Z,23.28
2022-08-18T00:55:54.511Z,22.94
2022-08-18T00:58:27.167Z,22.74
2022-08-18T01:00:54.859Z,22.54
2022-08-18T01:03:24.991Z,22.79
2022-08-18T01:05:55.066Z,22.50
2022-08-18T01:08:29.223Z,23.14
2022-08-18T01:10:57.737Z,22.92
2022-08-18T01:13:29.503Z,22.88
2022-08-18T01:15:56.546Z,22.66
2022-08-18T01:18:41.791Z,22.54
2022-08-18T01:21:30.212Z,22.48
2022-08-18T01:23:57.420Z,22.39
2022-08-18T01:26:26.107Z,22.63
2022-08-18T01:28:53.035Z,22.27
2022-08-18T01:31:39.610Z,22.42
2022-08-18T01:34:21.524Z,22.02
2022-08-18T01:36:48.394Z,21.91
2022-08-18T01:39:14.881Z,22.28
2022-08-18T01:42:04.555Z,22.57
2022-08-18T01:44:31.141Z,22.37
2022-08-18T01:46:57.699Z,22.62
2022-08-18T01:49:24.327Z,22.35
2022-08-18T01:51:52.628Z,23.08
2022-08-18T01:54:19.115Z,22.47
2022-08-18T01:56:48.388Z,22.41
2022-08-18T01:59:15.472Z,22.40
2022-08-18T02:01:50.380Z,22.26
2022-08-18T02:04:37.058Z,22.70
2022-08-18T02:07:06.150Z,22.57
2022-08-18T02:09:33.628Z,22.44
2022-08-18T02:12:01.021Z,22.30
2022-08-18T02:14:27.714Z,22.29
2022-08-18T02:17:02.290Z,21.91
2022-08-18T02:19:48.165Z,21.84
2022-08-18T02:22:16.783Z,21.99
2022-08-18T02:24:43.901Z,21.97
2022-08-18T02:27:11.495Z,21.97
2022-08-18T02:29:38.071Z,21.83
2022-08-18T02:32:05.215Z,21.68
2022-08-18T02:34:31.772Z,21.52
2022-08-18T02:37:00.073Z,21.80
2022-08-18T02:39:26.890Z,21.82
2022-08-18T02:41:53.527Z,21.83
2022-08-18T02:44:20.342Z,21.93
2022-08-18T02:46:51.592Z,21.69
2022-08-18T02:49:18.203Z,21.40
2022-08-18T02:51:44.930Z,21.36
2022-08-18T02:54:11.523Z,21.24
2022-08-18T02:56:41.175Z,21.17
2022-08-18T02:59:13.173Z,21.20
2022-08-18T03:01:40.832Z,20.87
2022-08-18T03:04:09.206Z,20.81
2022-08-18T03:06:36.589Z,20.95
2022-08-18T03:09:04.320Z,20.90
2022-08-18T03:11:30.887Z,20.75
2022-08-18T03:13:57.706Z,20.64
2022-08-18T03:16:24.606Z,20.34
2022-08-18T03:18:52.173Z,20.06
2022-08-18T03:21:21.671Z,20.34
2022-08-18T03:24:00.694Z,20.43
2022-08-18T03:26:28.441Z,20.54
2022-08-18T03:28:55.508Z,20.60
2022-08-18T03:31:23.161Z,20.68
2022-08-18T03:33:51.876Z,20.47
2022-08-18T03:36:20.251Z,20.62
2022-08-18T03:38:47.479Z,20.69
2022-08-18T03:41:57.014Z,20.63
2022-08-18T03:44:07.267Z,20.49
2022-08-18T03:46:33.862Z,21.05
2022-08-18T03:49:02.056Z,20.60
2022-08-18T03:51:30.122Z,20.77
2022-08-18T03:54:00.533Z,20.79
2022-08-18T03:56:29.418Z,20.84
2022-08-18T03:58:57.606Z,20.66
2022-08-18T04:01:27.180Z,20.93
2022-08-18T04:03:58.530Z,20.74
2022-08-18T04:06:30.432Z,20.29
2022-08-18T04:08:58.500Z,20.44
2022-08-18T04:11:25.257Z,20.65
2022-08-18T04:13:51.862Z,20.76
2022-08-18T04:16:18.350Z,20.88
2022-08-18T04:18:44.863Z,20.47
2022-08-18T04:21:13.537Z,20.39
2022-08-18T04:23:43.990Z,20.42
2022-08-18T04:26:19.027Z,20.46
2022-08-18T04:28:46.427Z,20.81
2022-08-18T04:31:14.164Z,20.76
2022-08-18T04:33:42.033Z,20.52
2022-08-18T04:36:13.587Z,20.74
2022-08-18T04:38:47.305Z,20.46
2022-08-18T04:41:14.542Z,20.61
2022-08-18T04:43:41.282Z,20.80
2022-08-18T04:46:08.313Z,20.80
2022-08-18T04:48:36.491Z,21.09
2022-08-18T04:51:07.791Z,20.91
2022-08-18T04:53:46.893Z,20.76
2022-08-18T04:56:14.913Z,20.95
2022-08-18T04:58:41.835Z,21.05
2022-08-18T05:01:09.998Z,21.39
2022-08-18T05:03:38.418Z,21.60
2022-08-18T05:06:16.830Z,21.91
2022-08-18T05:08:43.645Z,22.06
2022-08-18T05:11:10.254Z,22.25
2022-08-18T05:13:37.007Z,22.38
2022-08-18T05:16:11.774Z,22.46
2022-08-18T05:18:43.460Z,22.54
2022-08-18T05:21:14.090Z,22.59
2022-08-18T05:23:44.587Z,22.76
2022-08-18T05:26:11.682Z,22.97
2022-08-18T05:28:38.254Z,23.14
2022-08-18T05:31:13.939Z,23.31
2022-08-18T05:33:40.891Z,23.34
2022-08-18T05:36:30.395Z,23.67
2022-08-18T05:38:59.967Z,23.82
2022-08-18T05:41:29.006Z,24.00
2022-08-18T05:43:57.152Z,24.00
2022-08-18T05:46:30.789Z,23.78
2022-08-18T05:48:57.280Z,24.20
2022-08-18T05:51:28.447Z,24.52
2022-08-18T05:54:13.555Z,24.66
2022-08-18T05:56:47.676Z,24.71
2022-08-18T05:59:26.366Z,24.79
2022-08-18T06:01:59.658Z,24.69
2022-08-18T06:04:38.874Z,24.60
2022-08-18T06:07:08.684Z,24.75
2022-08-18T06:09:38.502Z,25.20
2022-08-18T06:12:28.726Z,25.47
2022-08-18T06:15:01.357Z,25.81
2022-08-18T06:17:41.372Z,25.48
2022-08-18T06:20:16.796Z,25.92
2022-08-18T06:23:01.966Z,26.04
2022-08-18T06:25:48.294Z,26.68
2022-08-18T06:28:16.170Z,27.28
2022-08-18T06:30:42.773Z,27.54
2022-08-18T06:33:29.758Z,27.74
2022-08-18T06:36:02.703Z,27.81
2022-08-18T06:38:48.099Z,28.38
2022-08-18T06:41:43.207Z,28.06
2022-08-18T06:44:01.247Z,28.94
2022-08-18T06:46:34.224Z,28.31
2022-08-18T06:49:04.432Z,28.79
2022-08-18T06:51:31.272Z,29.33
2022-08-18T06:53:57.795Z,29.00
2022-08-18T06:56:26.243Z,29.81
2022-08-18T06:58:55.270Z,30.20
2022-08-18T07:01:23.667Z,30.43
2022-08-18T07:03:54.820Z,30.56
2022-08-18T07:06:21.452Z,29.74
2022-08-18T07:08:48.839Z,30.15
2022-08-18T07:11:22.900Z,30.64
2022-08-18T07:14:03.619Z,31.34
2022-08-18T07:19:31.023Z,30.73
2022-08-18T07:22:30.094Z,31.37
2022-08-18T07:25:06.029Z,31.08
2022-08-18T07:27:41.456Z,31.65
2022-08-18T07:30:34.156Z,32.36
2022-08-18T07:33:36.270Z,32.21
2022-08-18T07:36:06.533Z,33.29
2022-08-18T07:38:44.023Z,33.70
2022-08-18T07:41:29.798Z,33.58
2022-08-18T07:44:00.711Z,33.00
2022-08-18T07:46:35.430Z,34.04
2022-08-18T07:49:05.403Z,33.25
2022-08-18T07:51:53.077Z,33.03
2022-08-18T07:54:49.433Z,33.07
2022-08-18T07:57:22.899Z,33.78
2022-08-18T07:59:49.423Z,33.59
2022-08-18T08:02:16.000Z,34.54
2022-08-18T08:04:45.571Z,34.62
2022-08-18T08:07:25.539Z,35.43
2022-08-18T08:09:55.228Z,35.12
2022-08-18T08:12:44.292Z,35.34
2022-08-18T08:15:15.672Z,34.67
2022-08-18T08:17:47.956Z,35.17
2022-08-18T08:20:22.196Z,34.75
2022-08-18T08:23:09.323Z,34.44
2022-08-18T08:25:47.971Z,34.39
2022-08-18T08:28:40.776Z,34.31
2022-08-18T08:31:36.638Z,34.34
2022-08-18T08:34:14.970Z,34.03
2022-08-18T08:36:45.065Z,34.35
2022-08-18T08:39:14.464Z,34.47
2022-08-18T08:41:43.734Z,34.51
2022-08-18T08:44:15.319Z,35.31
2022-08-18T08:47:02.471Z,35.86
2022-08-18T08:49:35.698Z,36.25
2022-08-18T08:52:09.594Z,34.81
2022-08-18T08:54:48.320Z,35.30
2022-08-18T08:57:16.275Z,36.32
2022-08-18T08:59:44.426Z,36.25
2022-08-18T09:02:27.016Z,36.69
2022-08-18T09:05:08.925Z,35.82
2022-08-18T09:07:42.122Z,35.31
2022-08-18T09:10:27.227Z,35.23
2022-08-18T09:12:53.868Z,34.91
2022-08-18T09:15:39.725Z,35.02
2022-08-18T09:18:06.243Z,34.64
2022-08-18T09:20:32.949Z,35.09
2022-08-18T09:23:19.788Z,35.37
2022-08-18T09:25:48.432Z,36.02
2022-08-18T09:28:15.103Z,35.57
2022-08-18T09:30:47.729Z,35.92
2022-08-18T09:33:20.776Z,36.76
2022-08-18T09:36:06.011Z,36.97
2022-08-18T09:39:04.741Z,36.59
2022-08-18T09:41:37.913Z,37.22
2022-08-18T09:44:17.922Z,36.61
2022-08-18T09:46:54.042Z,37.49
2022-08-18T09:50:37.217Z,37.79
2022-08-18T09:55:18.110Z,37.87
2022-08-18T09:57:46.660Z,37.96
2022-08-18T10:00:19.864Z,37.58
2022-08-18T10:02:51.255Z,38.71
2022-08-18T10:05:22.391Z,39.50
2022-08-18T10:07:55.964Z,38.94
2022-08-18T10:11:02.863Z,39.95
2022-08-18T10:13:49.889Z,38.61
2022-08-18T10:16:16.484Z,38.47
2022-08-18T10:19:01.925Z,39.77
2022-08-18T10:24:36.283Z,40.78
2022-08-18T10:27:07.295Z,40.58
2022-08-18T10:29:44.914Z,40.87
2022-08-18T10:32:14.451Z,40.89
2022-08-18T10:34:51.477Z,40.20
2022-08-18T10:37:45.271Z,40.57
2022-08-18T10:40:21.310Z,41.06
2022-08-18T10:43:46.228Z,40.75
2022-08-18T10:49:17.612Z,40.13
2022-08-18T10:51:59.463Z,39.77
2022-08-18T10:54:33.525Z,40.56
2022-08-18T10:57:20.270Z,40.34
2022-08-18T10:59:55.044Z,40.07
2022-08-18T11:02:37.317Z,40.18
2022-08-18T11:05:11.120Z,39.79
2022-08-18T11:07:42.900Z,38.90
2022-08-18T11:13:24.440Z,38.92
2022-08-18T11:16:00.435Z,38.37
2022-08-18T11:18:42.920Z,38.24
2022-08-18T11:21:31.413Z,38.76
2022-08-18T11:27:24.839Z,38.58
2022-08-18T11:29:51.992Z,38.46
2022-08-18T11:32:27.642Z,38.83
2022-08-18T11:35:01.599Z,39.51
2022-08-18T11:37:48.583Z,39.79
2022-08-18T11:40:34.532Z,39.31
2022-08-18T11:43:13.405Z,39.45
2022-08-18T11:45:47.944Z,38.79
2022-08-18T11:48:14.490Z,38.89
2022-08-18T11:50:54.666Z,39.63
2022-08-18T11:53:44.077Z,39.47
2022-08-18T11:56:14.320Z,38.89
2022-08-18T11:58:43.475Z,39.14
2022-08-18T12:01:11.198Z,40.32
2022-08-18T12:03:37.838Z,39.50
2022-08-18T12:06:20.274Z,39.19
2022-08-18T12:08:58.109Z,39.07
2022-08-18T12:11:30.313Z,38.97
2022-08-18T12:13:59.741Z,40.46
2022-08-18T12:16:35.035Z,40.38
2022-08-18T12:19:03.320Z,40.57
2022-08-18T12:21:32.322Z,40.02
2022-08-18T12:23:58.887Z,39.31
2022-08-18T12:26:38.260Z,39.44
2022-08-18T12:29:11.120Z,39.01
2022-08-18T12:31:47.507Z,38.76
2022-08-18T12:34:15.358Z,37.81
2022-08-18T12:36:42.364Z,37.54
2022-08-18T12:39:10.255Z,37.55
2022-08-18T12:41:37.603Z,37.84
2022-08-18T12:44:04.481Z,37.11
2022-08-18T12:46:39.894Z,37.66
2022-08-18T12:49:20.453Z,37.14
2022-08-18T12:51:50.387Z,36.60
2022-08-18T12:54:17.860Z,35.98
2022-08-18T12:56:46.495Z,35.64
2022-08-18T12:59:13.003Z,35.78
2022-08-18T13:01:40.245Z,35.58
2022-08-18T13:04:13.045Z,35.70
2022-08-18T13:06:48.537Z,35.62
2022-08-18T13:09:35.102Z,35.99
2022-08-18T13:12:16.137Z,36.50
2022-08-18T13:14:43.732Z,36.08
2022-08-18T13:17:15.284Z,35.98
2022-08-18T13:19:56.587Z,36.89
2022-08-18T13:22:32.090Z,36.95
2022-08-18T13:25:00.273Z,36.59
2022-08-18T13:27:27.028Z,36.95
2022-08-18T13:29:59.499Z,35.72
2022-08-18T13:32:26.246Z,35.57
2022-08-18T13:34:54.715Z,35.02
2022-08-18T13:37:26.529Z,35.21
2022-08-18T13:39:54.505Z,35.26
2022-08-18T13:42:26.171Z,35.38
2022-08-18T13:45:25.309Z,35.22
2022-08-18T13:47:51.176Z,35.10
2022-08-18T13:50:19.617Z,34.97
2022-08-18T13:52:46.324Z,34.81
2022-08-18T13:55:16.732Z,34.84
2022-08-18T13:57:50.876Z,34.84
2022-08-18T14:00:29.866Z,34.37
2022-08-18T14:02:58.872Z,34.17
2022-08-18T14:05:50.927Z,34.15
2022-08-18T14:08:12.507Z,29.63
2022-08-18T14:10:50.739Z,28.04
2022-08-18T14:13:20.848Z,26.99
2022-08-18T14:15:54.862Z,25.98
2022-08-18T14:18:29.021Z,25.43
2022-08-18T14:21:16.610Z,24.24
2022-08-18T14:24:02.126Z,23.73
2022-08-18T14:26:50.182Z,24.73
2022-08-18T14:29:17.734Z,23.50
2022-08-18T14:32:04.806Z,23.23
2022-08-18T14:34:31.365Z,23.99
2022-08-18T14:36:58.523Z,23.85
2022-08-18T14:39:25.701Z,24.22
2022-08-18T14:41:54.907Z,24.08
2022-08-18T14:44:24.272Z,24.11
2022-08-18T14:46:54.394Z,24.08
2022-08-18T14:49:28.526Z,24.02
2022-08-18T14:51:57.327Z,23.94
2022-08-18T14:54:24.211Z,23.76
2022-08-18T14:56:55.425Z,23.43
2022-08-18T14:59:23.243Z,24.16
2022-08-18T15:01:51.442Z,24.61
2022-08-18T15:04:19.031Z,24.65
2022-08-18T15:06:56.018Z,24.47
2022-08-18T15:09:24.411Z,24.35
2022-08-18T15:11:55.823Z,24.21
2022-08-18T15:14:26.599Z,23.75
2022-08-18T15:17:00.108Z,24.14
2022-08-18T15:19:57.729Z,24.16
2022-08-18T15:22:31.511Z,23.96
2022-08-18T15:25:17.867Z,24.55
2022-08-18T15:27:47.833Z,24.87
2022-08-18T15:30:19.848Z,25.09
2022-08-18T15:32:47.476Z,25.56
2022-08-18T15:35:17.074Z,25.77
2022-08-18T15:37:44.844Z,25.26
2022-08-18T15:40:21.696Z,25.26
2022-08-18T15:43:01.461Z,25.45
2022-08-18T15:45:35.489Z,25.44
2022-08-18T15:48:02.218Z,25.38
2022-08-18T15:50:28.763Z,25.17
2022-08-18T15:52:56.081Z,24.58
2022-08-18T15:55:23.331Z,25.28
2022-08-18T15:57:56.899Z,25.23
2022-08-18T16:00:26.753Z,25.31
2022-08-18T16:02:57.156Z,25.71
2022-08-18T16:05:31.320Z,25.79
2022-08-18T16:07:58.958Z,25.51
2022-08-18T16:10:26.166Z,25.58
2022-08-18T16:12:52.689Z,25.52
2022-08-18T16:15:21.375Z,25.45
2022-08-18T16:17:49.437Z,25.17
2022-08-18T16:20:16.067Z,24.91
2022-08-18T16:22:42.806Z,25.07
2022-08-18T16:25:09.528Z,25.04
2022-08-18T16:27:36.511Z,25.35
2022-08-18T16:30:04.650Z,25.78
2022-08-18T16:32:31.999Z,25.68
2022-08-18T16:34:59.052Z,25.88
2022-08-18T16:37:27.040Z,25.56
2022-08-18T16:39:54.109Z,25.06
2022-08-18T16:42:20.791Z,25.12
2022-08-18T16:44:47.343Z,25.34
2022-08-18T16:47:17.443Z,24.80
2022-08-18T16:49:48.724Z,25.04
2022-08-18T16:52:15.995Z,25.35
2022-08-18T16:54:46.077Z,24.98
2022-08-18T16:57:12.660Z,25.25
2022-08-18T16:59:58.046Z,25.17
2022-08-18T17:02:43.868Z,24.76
2022-08-18T17:05:12.299Z,24.52
2022-08-18T17:07:38.867Z,24.11
2022-08-18T17:10:06.122Z,24.42
2022-08-18T17:12:32.741Z,24.09
2022-08-18T17:14:59.239Z,24.52
2022-08-18T17:17:25.842Z,24.63
2022-08-18T17:19:52.400Z,24.71
2022-08-18T17:22:18.965Z,24.71
2022-08-18T17:24:49.458Z,24.95
2022-08-18T17:27:37.247Z,24.95
2022-08-18T17:30:07.574Z,24.92
2022-08-18T17:32:51.351Z,24.89
2022-08-18T17:35:28.890Z,24.73
2022-08-18T17:38:13.927Z,24.56
2022-08-18T17:40:46.110Z,24.23
2022-08-18T17:43:15.057Z,23.85
2022-08-18T17:45:42.421Z,23.85
2022-08-18T17:48:22.110Z,23.86
2022-08-18T17:51:11.358Z,23.40
2022-08-18T17:53:38.574Z,22.94
2022-08-18T17:56:07.939Z,23.12
2022-08-18T17:58:40.678Z,23.19
2022-08-18T18:01:08.762Z,22.73
2022-08-18T18:03:35.901Z,22.72
2022-08-18T18:06:10.322Z,22.72
2022-08-18T18:08:48.957Z,22.62
2022-08-18T18:11:15.440Z,22.54
2022-08-18T18:13:41.987Z,22.67
2022-08-18T18:16:28.810Z,22.53
2022-08-18T18:19:02.675Z,22.57
2022-08-18T18:21:58.947Z,22.55
2022-08-18T18:24:17.686Z,22.84
2022-08-18T18:26:52.141Z,23.09
2022-08-18T18:29:21.195Z,22.95
2022-08-18T18:31:58.236Z,23.06
2022-08-18T18:34:28.153Z,23.04
2022-08-18T18:36:55.259Z,23.00
2022-08-18T18:39:23.875Z,22.60
2022-08-18T18:42:29.936Z,22.59
2022-08-18T18:45:01.139Z,22.32
2022-08-18T18:47:42.484Z,22.35
2022-08-18T18:50:12.616Z,22.11
2022-08-18T18:52:43.597Z,22.05
2022-08-18T18:55:10.080Z,21.78
2022-08-18T18:57:59.854Z,21.87
2022-08-18T19:00:30.222Z,22.05
2022-08-18T19:03:05.063Z,21.99
2022-08-18T19:05:38.132Z,21.83
2022-08-18T19:08:24.225Z,21.84
2022-08-18T19:10:56.771Z,21.60
2022-08-18T19:13:33.080Z,21.60
2022-08-18T19:16:23.670Z,21.43
2022-08-18T19:19:37.246Z,21.64
2022-08-18T19:22:05.339Z,21.93
2022-08-18T19:24:38.570Z,21.71
2022-08-18T19:27:07.046Z,21.36
2022-08-18T19:29:38.225Z,21.65
2022-08-18T19:32:07.643Z,21.89
2022-08-18T19:34:37.478Z,21.75
2022-08-18T19:37:40.894Z,21.72
2022-08-18T19:40:40.065Z,21.50
2022-08-18T19:43:12.078Z,21.34
2022-08-18T19:45:41.443Z,21.10
2022-08-18T19:48:18.098Z,20.71
2022-08-18T19:50:53.993Z,20.89
2022-08-18T19:53:23.502Z,21.11
2022-08-18T19:56:04.278Z,21.49
2022-08-18T19:59:18.146Z,21.37
2022-08-18T20:01:52.851Z,21.23
2022-08-18T20:04:28.221Z,21.32
2022-08-18T20:06:55.746Z,21.58
2022-08-18T20:09:43.023Z,20.97
2022-08-18T20:12:16.057Z,20.94
2022-08-18T20:14:43.616Z,21.04
2022-08-18T20:17:10.446Z,21.03
2022-08-18T20:19:39.910Z,20.79
2022-08-18T20:22:15.870Z,20.81
2022-08-18T20:24:45.849Z,20.57
2022-08-18T20:27:35.103Z,20.62
2022-08-18T20:30:05.165Z,20.53
2022-08-18T20:32:34.528Z,20.45
2022-08-18T20:35:24.373Z,20.79
2022-08-18T20:37:51.522Z,20.87
2022-08-18T20:40:41.066Z,20.76
2022-08-18T20:43:24.025Z,20.97
2022-08-18T20:45:55.198Z,20.88
2022-08-18T20:48:23.715Z,20.76
2022-08-18T20:51:01.006Z,20.54
2022-08-18T20:53:34.050Z,20.71
2022-08-18T20:56:32.103Z,20.37
2022-08-18T20:59:09.052Z,20.53
2022-08-18T21:01:36.588Z,20.58
2022-08-18T21:04:03.491Z,20.37
2022-08-18T21:06:36.351Z,20.26
2022-08-18T21:09:03.950Z,20.43
2022-08-18T21:11:40.419Z,20.41
2022-08-18T21:14:07.691Z,20.29
2022-08-18T21:16:38.837Z,20.25
2022-08-18T21:19:19.494Z,20.53
2022-08-18T21:21:45.964Z,20.31
2022-08-18T21:24:22.260Z,20.35
2022-08-18T21:26:48.913Z,20.20
2022-08-18T21:29:16.359Z,20.31
2022-08-18T21:31:45.167Z,19.88
2022-08-18T21:34:15.863Z,20.10
2022-08-18T21:36:53.496Z,19.86
2022-08-18T21:39:21.019Z,19.98
2022-08-18T21:41:48.870Z,20.14
2022-08-18T21:44:17.914Z,20.58
2022-08-18T21:46:45.965Z,20.24
2022-08-18T21:49:13.810Z,20.15
2022-08-18T21:51:46.007Z,20.36
2022-08-18T21:54:15.670Z,20.37
2022-08-18T21:56:42.306Z,20.29
2022-08-18T21:59:11.837Z,20.39
2022-08-18T22:01:47.976Z,20.74
2022-08-18T22:04:24.324Z,20.85
2022-08-18T22:06:52.938Z,20.79
2022-08-18T22:09:39.792Z,20.72
2022-08-18T22:12:51.200Z,20.75
2022-08-18T22:15:24.307Z,20.42
2022-08-18T22:17:51.788Z,20.29
2022-08-18T22:20:37.586Z,20.77
2022-08-18T22:23:41.692Z,20.70
2022-08-18T22:26:17.389Z,20.31
2022-08-18T22:29:00.705Z,20.46
2022-08-18T22:31:47.150Z,20.08
2022-08-18T22:34:27.081Z,20.22
2022-08-18T22:36:56.017Z,20.27
2022-08-18T22:39:43.602Z,20.38
2022-08-18T22:42:10.636Z,20.02
2022-08-18T22:44:37.746Z,20.36
2022-08-18T22:47:04.641Z,20.35
2022-08-18T22:49:34.050Z,20.71
2022-08-18T22:52:00.577Z,20.67
2022-08-18T22:54:27.262Z,20.76
2022-08-18T22:56:57.638Z,20.46
2022-08-18T22:59:25.509Z,20.40
2022-08-18T23:01:54.153Z,20.36
2022-08-18T23:04:22.538Z,20.14
2022-08-18T23:06:52.163Z,19.90
2022-08-18T23:09:19.588Z,19.94
2022-08-18T23:11:46.634Z,20.05
2022-08-18T23:14:13.203Z,20.19
2022-08-18T23:16:40.185Z,20.48
2022-08-18T23:19:06.743Z,20.44
2022-08-18T23:21:35.369Z,20.47
2022-08-18T23:24:05.924Z,20.53
2022-08-18T23:26:33.999Z,20.29
2022-08-18T23:29:00.735Z,19.94
2022-08-18T23:31:27.819Z,19.85
2022-08-18T23:33:54.323Z,19.98
2022-08-18T23:36:21.007Z,20.00
2022-08-18T23:38:47.496Z,19.65
2022-08-18T23:41:14.274Z,19.62
2022-08-18T23:43:41.895Z,19.75
2022-08-18T23:46:15.674Z,19.97
2022-08-18T23:48:44.457Z,20.23
2022-08-18T23:51:10.993Z,20.84
2022-08-18T23:53:38.207Z,20.87
2022-08-18T23:56:06.090Z,20.60
2022-08-18T23:58:32.614Z,20.63
